Time;durP1;ratioP1;P1;durP2;ratioP2;P2;SDS_P1;SDS_P2;PMS_P1;PMS_P2;Temp;Humidity;BMP_temperature;BMP_pressure;BME280_temperature;BME280_humidity;BME280_pressure;Samples;Min_cycle;Max_cycle;Signal;HPM_P1;HPM_P2
2021/11/04 00:00:29;;;;;;;;;;;16.40;72.10;;;;;;4258543;27;19919;-71
2021/11/04 00:02:34;;;;;;;;;;;16.40;72.10;;;;;;4257059;27;19927;-71
2021/11/04 00:04:36;;;;;;;;;;;16.40;72.10;;;;;;4263636;27;19919;-70
2021/11/04 00:06:39;;;;;;;;;;;16.40;72.30;;;;;;4252211;27;19919;-77
2021/11/04 00:08:42;;;;;;;;;;;16.40;72.20;;;;;;4264398;27;19919;-70
2021/11/04 00:10:44;;;;;;;;;;;16.40;72.30;;;;;;4259435;27;19920;-71
2021/11/04 00:12:47;;;;;;;;;;;16.40;72.30;;;;;;4238468;27;19919;-71
2021/11/04 00:14:50;;;;;;;;;;;16.30;72.20;;;;;;4264779;27;19919;-71
2021/11/04 00:16:53;;;;;;;;;;;16.40;72.10;;;;;;4260182;27;19926;-72
2021/11/04 00:18:57;;;;;;;;;;;16.30;72.30;;;;;;4247852;27;19919;-73
2021/11/04 00:20:59;;;;;;;;;;;16.30;72.20;;;;;;4251175;27;19919;-74
2021/11/04 00:23:02;;;;;;;;;;;16.40;72.20;;;;;;4237766;27;20379;-74
2021/11/04 00:25:06;;;;;;;;;;;16.30;72.30;;;;;;4247303;27;19926;-71
2021/11/04 00:27:08;;;;;;;;;;;16.30;72.40;;;;;;4258862;27;20425;-70
2021/11/04 00:29:11;;;;;;;;;;;16.30;72.30;;;;;;4229002;28;20308;-70
2021/11/04 00:31:14;;;;;;;;;;;16.30;72.40;;;;;;4249818;27;20280;-70
2021/11/04 00:33:16;;;;;;;;;;;16.30;72.30;;;;;;4253865;27;19975;-70
2021/11/04 00:35:20;;;;;;;;;;;16.30;72.40;;;;;;4246577;27;19919;-70
2021/11/04 00:37:23;;;;;;;;;;;16.30;72.40;;;;;;4257777;27;19922;-71
2021/11/04 00:39:26;;;;;;;;;;;16.20;72.30;;;;;;4248092;27;19920;-71
2021/11/04 00:41:28;;;;;;;;;;;16.30;72.30;;;;;;4248801;27;19954;-70
2021/11/04 00:43:31;;;;;;;;;;;16.30;72.30;;;;;;4256946;27;19923;-70
2021/11/04 00:45:34;;;;;;;;;;;16.30;72.20;;;;;;4246427;27;19964;-70
2021/11/04 00:47:36;;;;;;;;;;;16.30;72.20;;;;;;4238667;27;19927;-70
2021/11/04 00:49:39;;;;;;;;;;;16.20;72.20;;;;;;4248647;27;20371;-70
2021/11/04 00:51:43;;;;;;;;;;;16.20;72.30;;;;;;4250186;27;19919;-70
2021/11/04 00:53:46;;;;;;;;;;;16.20;72.40;;;;;;4257640;27;19919;-70
2021/11/04 00:55:49;;;;;;;;;;;16.20;72.40;;;;;;4228179;28;19935;-70
2021/11/04 00:57:52;;;;;;;;;;;16.20;72.40;;;;;;4255448;27;19926;-70
2021/11/04 00:59:55;;;;;;;;;;;16.20;72.40;;;;;;4249233;27;19920;-70
2021/11/04 01:01:57;;;;;;;;;;;16.20;72.20;;;;;;4248662;27;19972;-70
2021/11/04 01:04:00;;;;;;;;;;;16.20;72.30;;;;;;4258983;27;19926;-71
2021/11/04 01:06:03;;;;;;;;;;;16.20;72.30;;;;;;4246450;27;19923;-70
2021/11/04 01:08:07;;;;;;;;;;;16.20;72.30;;;;;;4255174;27;19919;-70
2021/11/04 01:10:10;;;;;;;;;;;16.20;72.30;;;;;;4249894;27;20298;-70
2021/11/04 01:12:12;;;;;;;;;;;16.20;72.40;;;;;;4247508;27;19927;-70
2021/11/04 01:14:15;;;;;;;;;;;16.20;72.40;;;;;;4257667;27;19919;-71
2021/11/04 01:16:18;;;;;;;;;;;16.20;72.30;;;;;;4246379;28;20256;-70
2021/11/04 01:18:21;;;;;;;;;;;16.20;72.40;;;;;;4254024;27;19937;-70
2021/11/04 01:20:24;;;;;;;;;;;16.20;72.30;;;;;;4251097;27;20371;-70
2021/11/04 01:22:26;;;;;;;;;;;16.20;72.30;;;;;;4247638;27;19939;-70
2021/11/04 01:24:31;;;;;;;;;;;16.20;72.30;;;;;;4258246;27;19976;-70
2021/11/04 01:26:34;;;;;;;;;;;16.10;72.40;;;;;;4247128;27;19941;-70
2021/11/04 01:28:37;;;;;;;;;;;16.10;72.30;;;;;;4250573;27;19926;-70
2021/11/04 01:30:39;;;;;;;;;;;16.20;72.30;;;;;;4258935;27;19925;-71
2021/11/04 01:32:42;;;;;;;;;;;16.10;72.30;;;;;;4260980;27;20260;-71
2021/11/04 01:34:45;;;;;;;;;;;16.10;72.30;;;;;;4249087;27;19919;-70
2021/11/04 01:36:47;;;;;;;;;;;16.10;72.30;;;;;;4263812;27;19919;-70
2021/11/04 01:38:50;;;;;;;;;;;16.10;72.40;;;;;;4256779;27;19972;-70
2021/11/04 01:40:54;;;;;;;;;;;16.10;72.30;;;;;;4256907;27;19919;-70
2021/11/04 01:42:57;;;;;;;;;;;16.10;72.20;;;;;;4261762;27;20336;-70
2021/11/04 01:45:00;;;;;;;;;;;16.10;72.40;;;;;;4258573;27;19926;-71
2021/11/04 01:47:03;;;;;;;;;;;16.10;72.40;;;;;;4247494;28;20357;-71
2021/11/04 01:49:06;;;;;;;;;;;16.10;72.30;;;;;;4251480;27;19991;-70
2021/11/04 01:51:08;;;;;;;;;;;16.10;72.30;;;;;;4252977;27;19920;-70
2021/11/04 01:53:11;;;;;;;;;;;16.10;72.20;;;;;;4246196;27;20413;-70
2021/11/04 01:55:14;;;;;;;;;;;16.00;72.30;;;;;;4258643;27;19953;-70
2021/11/04 01:57:18;;;;;;;;;;;16.00;72.30;;;;;;4246153;27;19920;-70
2021/11/04 01:59:21;;;;;;;;;;;16.00;72.30;;;;;;4253253;27;19919;-70
2021/11/04 02:01:24;;;;;;;;;;;16.00;72.30;;;;;;4256779;27;19964;-70
2021/11/04 02:03:30;;;;;;;;;;;16.00;72.40;;;;;;4249250;27;19963;-70
2021/11/04 02:05:38;;;;;;;;;;;16.00;72.50;;;;;;4253123;27;19923;-70
2021/11/04 02:07:44;;;;;;;;;;;16.00;72.50;;;;;;4266380;27;20391;-70
2021/11/04 02:09:51;;;;;;;;;;;16.00;72.50;;;;;;4260422;27;19927;-71
2021/11/04 02:11:56;;;;;;;;;;;16.00;72.50;;;;;;4259349;27;19923;-71
2021/11/04 02:14:01;;;;;;;;;;;16.00;72.40;;;;;;4264784;27;20481;-70
2021/11/04 02:16:04;;;;;;;;;;;16.00;72.50;;;;;;4260624;27;19918;-70
2021/11/04 02:18:08;;;;;;;;;;;16.00;72.40;;;;;;4248815;27;19964;-70
2021/11/04 02:20:11;;;;;;;;;;;15.90;72.30;;;;;;4254522;27;19922;-70
2021/11/04 02:22:20;;;;;;;;;;;16.00;72.40;;;;;;4265720;27;19923;-70
2021/11/04 02:24:30;;;;;;;;;;;16.00;72.30;;;;;;4246179;27;20291;-70
2021/11/04 02:26:35;;;;;;;;;;;16.00;72.50;;;;;;4250917;27;19976;-71
2021/11/04 02:28:39;;;;;;;;;;;16.00;72.40;;;;;;4249892;27;19965;-74
2021/11/04 02:30:41;;;;;;;;;;;16.00;72.30;;;;;;4257272;27;19972;-74
2021/11/04 02:32:44;;;;;;;;;;;16.00;72.30;;;;;;4255954;27;20341;-70
2021/11/04 02:34:48;;;;;;;;;;;16.00;72.40;;;;;;4249265;27;20439;-70
2021/11/04 02:36:50;;;;;;;;;;;16.00;72.50;;;;;;4255038;27;19919;-70
2021/11/04 02:38:53;;;;;;;;;;;16.00;72.40;;;;;;4265664;27;19930;-70
2021/11/04 02:40:57;;;;;;;;;;;16.00;72.30;;;;;;4258629;27;19919;-69
2021/11/04 02:43:01;;;;;;;;;;;15.90;72.30;;;;;;4259563;27;19919;-70
2021/11/04 02:45:04;;;;;;;;;;;15.90;72.30;;;;;;4263904;27;20484;-70
2021/11/04 02:47:07;;;;;;;;;;;15.90;72.50;;;;;;4253941;27;19985;-71
2021/11/04 02:49:11;;;;;;;;;;;15.90;72.40;;;;;;4265694;27;20007;-70
2021/11/04 02:51:13;;;;;;;;;;;15.90;72.40;;;;;;4259216;27;19927;-69
2021/11/04 02:53:17;;;;;;;;;;;15.90;72.50;;;;;;4258738;27;20410;-69
2021/11/04 02:55:30;;;;;;;;;;;15.90;72.40;;;;;;4264673;27;19948;-70
2021/11/04 02:57:40;;;;;;;;;;;15.90;72.30;;;;;;4259675;27;19923;-70
2021/11/04 02:59:45;;;;;;;;;;;15.90;72.40;;;;;;4248123;27;19923;-70
2021/11/04 03:01:48;;;;;;;;;;;15.90;72.40;;;;;;4256280;27;19948;-70
2021/11/04 03:03:51;;;;;;;;;;;15.90;72.30;;;;;;4253066;27;20261;-70
2021/11/04 03:05:54;;;;;;;;;;;15.90;72.50;;;;;;4249790;27;19931;-70
2021/11/04 03:07:56;;;;;;;;;;;15.90;72.40;;;;;;4259598;27;19980;-70
2021/11/04 03:09:59;;;;;;;;;;;15.80;72.40;;;;;;4247791;27;20248;-70
2021/11/04 03:12:03;;;;;;;;;;;15.80;72.40;;;;;;4256090;27;19964;-70
2021/11/04 03:14:05;;;;;;;;;;;15.80;72.30;;;;;;4255040;27;19919;-72
2021/11/04 03:16:11;;;;;;;;;;;15.80;72.40;;;;;;4249170;27;19919;-70
2021/11/04 03:18:14;;;;;;;;;;;15.80;72.40;;;;;;4250814;27;19927;-70
2021/11/04 03:20:17;;;;;;;;;;;15.80;72.50;;;;;;4264877;27;20527;-72
2021/11/04 03:22:20;;;;;;;;;;;15.80;72.50;;;;;;4259493;27;19926;-70
2021/11/04 03:24:24;;;;;;;;;;;15.90;72.50;;;;;;4235503;27;19963;-71
2021/11/04 03:26:28;;;;;;;;;;;15.80;72.30;;;;;;4247712;27;19919;-70
2021/11/04 03:28:31;;;;;;;;;;;15.80;72.30;;;;;;4253253;27;19948;-70
2021/11/04 03:30:36;;;;;;;;;;;15.80;72.40;;;;;;4265023;27;19923;-70
2021/11/04 03:32:41;;;;;;;;;;;15.80;72.30;;;;;;4262001;27;19979;-70
2021/11/04 03:34:44;;;;;;;;;;;15.80;72.40;;;;;;4258440;27;19923;-70
2021/11/04 03:36:48;;;;;;;;;;;15.80;72.30;;;;;;4262353;27;19920;-70
2021/11/04 03:38:51;;;;;;;;;;;15.80;72.40;;;;;;4242830;27;19919;-71
2021/11/04 03:40:55;;;;;;;;;;;15.80;72.30;;;;;;4265077;27;20340;-71
2021/11/04 03:42:58;;;;;;;;;;;15.80;72.50;;;;;;4239905;27;19919;-70
2021/11/04 03:45:01;;;;;;;;;;;15.80;72.30;;;;;;4239706;27;19984;-70
2021/11/04 03:47:04;;;;;;;;;;;15.80;72.40;;;;;;4263697;27;19926;-70
2021/11/04 03:49:09;;;;;;;;;;;15.80;72.40;;;;;;4252706;27;20275;-70
2021/11/04 03:51:13;;;;;;;;;;;15.80;73.00;;;;;;4264721;27;20309;-70
2021/11/04 03:53:16;;;;;;;;;;;15.80;72.40;;;;;;4259430;27;19919;-72
2021/11/04 03:55:20;;;;;;;;;;;15.80;72.40;;;;;;4240913;27;19919;-70
2021/11/04 03:57:22;;;;;;;;;;;15.80;72.30;;;;;;4264925;27;20320;-70
2021/11/04 03:59:25;;;;;;;;;;;15.80;72.40;;;;;;4252175;27;19987;-70
2021/11/04 04:01:30;;;;;;;;;;;15.70;72.30;;;;;;4264383;27;19922;-70
2021/11/04 04:03:33;;;;;;;;;;;15.80;72.40;;;;;;4240806;27;20357;-70
2021/11/04 04:05:37;;;;;;;;;;;15.80;72.50;;;;;;4238614;27;19945;-70
2021/11/04 04:07:40;;;;;;;;;;;15.70;72.50;;;;;;4264162;27;19919;-70
2021/11/04 04:09:42;;;;;;;;;;;15.70;72.60;;;;;;4251499;27;19919;-70
2021/11/04 04:11:45;;;;;;;;;;;15.70;72.40;;;;;;4264356;27;19923;-70
2021/11/04 04:13:48;;;;;;;;;;;15.70;72.40;;;;;;4259491;27;19935;-70
2021/11/04 04:15:50;;;;;;;;;;;15.70;72.30;;;;;;4255826;27;19972;-70
2021/11/04 04:17:53;;;;;;;;;;;15.70;72.50;;;;;;4264042;27;19919;-70
2021/11/04 04:19:56;;;;;;;;;;;15.70;72.40;;;;;;4258460;27;19930;-70
2021/11/04 04:22:00;;;;;;;;;;;15.70;72.50;;;;;;4246598;27;19964;-70
2021/11/04 04:24:03;;;;;;;;;;;15.70;72.50;;;;;;4251498;27;19930;-70
2021/11/04 04:26:06;;;;;;;;;;;15.70;72.40;;;;;;4248526;27;20588;-71
2021/11/04 04:28:09;;;;;;;;;;;15.70;72.50;;;;;;4247549;27;19960;-71
2021/11/04 04:30:12;;;;;;;;;;;15.70;72.50;;;;;;4253348;27;20375;-73
2021/11/04 04:32:15;;;;;;;;;;;15.70;72.50;;;;;;4266738;27;19919;-76
2021/11/04 04:34:17;;;;;;;;;;;15.70;72.50;;;;;;4261145;27;20416;-76
2021/11/04 04:36:20;;;;;;;;;;;15.70;72.60;;;;;;4258433;27;19919;-71
2021/11/04 04:38:24;;;;;;;;;;;15.70;72.50;;;;;;4247062;27;19919;-70
2021/11/04 04:40:27;;;;;;;;;;;15.70;72.60;;;;;;4257513;27;19923;-71
2021/11/04 04:42:29;;;;;;;;;;;15.70;72.60;;;;;;4248178;27;20352;-71
2021/11/04 04:44:32;;;;;;;;;;;15.70;72.70;;;;;;4248630;27;20420;-71
2021/11/04 04:46:35;;;;;;;;;;;15.70;72.60;;;;;;4257527;27;19923;-71
2021/11/04 04:48:38;;;;;;;;;;;15.70;72.50;;;;;;4246646;27;19967;-71
2021/11/04 04:50:41;;;;;;;;;;;15.70;72.60;;;;;;4256293;27;19972;-71
2021/11/04 04:52:44;;;;;;;;;;;15.70;72.60;;;;;;4248864;27;19919;-71
2021/11/04 04:54:48;;;;;;;;;;;15.70;72.70;;;;;;4248014;27;20320;-71
2021/11/04 04:56:50;;;;;;;;;;;15.60;72.60;;;;;;4234128;27;19984;-71
2021/11/04 04:58:53;;;;;;;;;;;15.60;72.70;;;;;;4263364;27;19919;-70
2021/11/04 05:00:56;;;;;;;;;;;15.70;72.60;;;;;;4253947;27;20104;-71
2021/11/04 05:02:59;;;;;;;;;;;15.70;72.70;;;;;;4260106;27;19971;-70
2021/11/04 05:05:02;;;;;;;;;;;15.60;72.70;;;;;;4261706;27;19987;-71
2021/11/04 05:07:05;;;;;;;;;;;15.70;72.70;;;;;;4252023;27;20344;-71
2021/11/04 05:09:07;;;;;;;;;;;15.60;72.70;;;;;;4263464;27;19964;-71
2021/11/04 05:11:11;;;;;;;;;;;15.70;72.80;;;;;;4254449;27;19925;-71
2021/11/04 05:13:14;;;;;;;;;;;15.60;72.80;;;;;;4259346;27;19927;-71
2021/11/04 05:15:17;;;;;;;;;;;15.70;72.90;;;;;;4261755;27;19919;-71
2021/11/04 05:17:20;;;;;;;;;;;15.60;72.80;;;;;;4251778;27;19919;-71
2021/11/04 05:19:22;;;;;;;;;;;15.60;72.80;;;;;;4264386;27;19919;-71
2021/11/04 05:21:25;;;;;;;;;;;15.60;72.80;;;;;;4257069;27;19920;-70
2021/11/04 05:23:27;;;;;;;;;;;15.60;72.70;;;;;;4259464;27;20298;-71
2021/11/04 05:25:30;;;;;;;;;;;15.60;72.90;;;;;;4260960;27;20423;-70
2021/11/04 05:27:35;;;;;;;;;;;15.60;72.90;;;;;;4258163;27;20261;-70
2021/11/04 05:29:38;;;;;;;;;;;15.60;72.90;;;;;;4246265;28;20424;-69
2021/11/04 05:31:40;;;;;;;;;;;15.60;72.90;;;;;;4252590;27;19964;-70
2021/11/04 05:33:43;;;;;;;;;;;15.60;73.50;;;;;;4254658;27;20006;-70
2021/11/04 05:35:46;;;;;;;;;;;15.60;72.90;;;;;;4250658;27;19952;-70
2021/11/04 05:37:48;;;;;;;;;;;15.60;72.90;;;;;;4261014;27;19922;-70
2021/11/04 05:39:51;;;;;;;;;;;15.60;73.00;;;;;;4249316;27;19926;-70
2021/11/04 05:41:54;;;;;;;;;;;15.60;73.00;;;;;;4255059;27;20290;-70
2021/11/04 05:43:58;;;;;;;;;;;15.60;73.10;;;;;;4256070;27;19927;-70
2021/11/04 05:46:01;;;;;;;;;;;15.60;73.10;;;;;;4249906;27;19919;-70
2021/11/04 05:48:04;;;;;;;;;;;15.60;73.10;;;;;;4260920;27;19971;-71
2021/11/04 05:50:07;;;;;;;;;;;15.50;73.10;;;;;;4249092;27;19926;-71
2021/11/04 05:52:10;;;;;;;;;;;15.60;73.20;;;;;;4254324;27;19980;-70
2021/11/04 05:54:12;;;;;;;;;;;15.60;73.20;;;;;;4256772;27;19926;-70
2021/11/04 05:56:15;;;;;;;;;;;15.50;73.10;;;;;;4249440;27;19919;-71
2021/11/04 05:58:18;;;;;;;;;;;15.50;73.20;;;;;;4253335;27;19942;-71
2021/11/04 06:00:22;;;;;;;;;;;15.50;73.10;;;;;;4266255;27;20398;-70
2021/11/04 06:02:25;;;;;;;;;;;15.50;73.20;;;;;;4262082;27;19941;-71
2021/11/04 06:04:34;;;;;;;;;;;15.60;73.30;;;;;;4259209;27;19926;-70
2021/11/04 06:06:37;;;;;;;;;;;15.50;73.90;;;;;;4266392;27;19919;-70
2021/11/04 06:08:39;;;;;;;;;;;15.50;73.30;;;;;;4253679;27;19945;-70
2021/11/04 06:10:42;;;;;;;;;;;15.50;73.30;;;;;;4266447;27;20343;-71
2021/11/04 06:12:44;;;;;;;;;;;15.50;73.30;;;;;;4261611;27;19934;-71
2021/11/04 06:14:47;;;;;;;;;;;15.50;73.40;;;;;;4257827;27;19919;-70
2021/11/04 06:16:51;;;;;;;;;;;15.50;73.30;;;;;;4266295;27;19919;-71
2021/11/04 06:18:54;;;;;;;;;;;15.50;73.30;;;;;;4253166;27;19923;-71
2021/11/04 06:20:57;;;;;;;;;;;15.50;73.40;;;;;;4248747;27;19968;-70
2021/11/04 06:22:59;;;;;;;;;;;15.50;73.30;;;;;;4251942;27;19926;-71
2021/11/04 06:25:03;;;;;;;;;;;15.50;73.50;;;;;;4258022;27;19919;-70
2021/11/04 06:27:06;;;;;;;;;;;15.50;73.30;;;;;;4248836;27;20391;-71
2021/11/04 06:29:09;;;;;;;;;;;15.50;73.40;;;;;;4252778;27;20446;-71
2021/11/04 06:31:11;;;;;;;;;;;15.50;73.50;;;;;;4264908;27;19919;-70
2021/11/04 06:33:16;;;;;;;;;;;15.50;73.50;;;;;;4263042;27;19923;-70
2021/11/04 06:35:18;;;;;;;;;;;15.50;73.60;;;;;;4255457;27;20403;-71
2021/11/04 06:37:21;;;;;;;;;;;15.50;73.50;;;;;;4265632;27;20336;-70
2021/11/04 06:39:24;;;;;;;;;;;15.50;73.60;;;;;;4245850;27;19976;-71
2021/11/04 06:41:27;;;;;;;;;;;15.50;73.60;;;;;;4249955;27;19968;-70
2021/11/04 06:43:29;;;;;;;;;;;15.50;73.60;;;;;;4250141;27;19934;-70
2021/11/04 06:45:33;;;;;;;;;;;15.50;73.70;;;;;;4260443;27;19972;-71
2021/11/04 06:47:37;;;;;;;;;;;15.50;73.70;;;;;;4249980;27;20280;-71
2021/11/04 06:49:42;;;;;;;;;;;15.50;73.70;;;;;;4259076;27;19919;-71
2021/11/04 06:51:47;;;;;;;;;;;15.50;73.60;;;;;;4250492;27;19987;-71
2021/11/04 06:53:53;;;;;;;;;;;15.50;73.60;;;;;;4250203;27;19935;-71
2021/11/04 06:56:00;;;;;;;;;;;15.50;73.80;;;;;;4258475;27;19923;-71
2021/11/04 06:58:03;;;;;;;;;;;15.40;73.70;;;;;;4248077;27;19968;-70
2021/11/04 07:00:06;;;;;;;;;;;15.40;73.70;;;;;;4258973;27;19918;-71
2021/11/04 07:02:15;;;;;;;;;;;15.50;73.90;;;;;;4248801;27;20368;-71
2021/11/04 07:04:23;;;;;;;;;;;15.50;73.90;;;;;;4250518;27;19920;-71
2021/11/04 07:06:29;;;;;;;;;;;15.50;73.80;;;;;;4256950;27;19919;-70
2021/11/04 07:08:39;;;;;;;;;;;15.50;73.80;;;;;;4248234;27;19942;-71
2021/11/04 07:10:42;;;;;;;;;;;15.40;73.70;;;;;;4259634;27;19918;-72
2021/11/04 07:12:47;;;;;;;;;;;15.40;73.80;;;;;;4247882;27;19920;-70
2021/11/04 07:14:49;;;;;;;;;;;15.40;73.90;;;;;;4252039;27;19934;-70
2021/11/04 07:16:52;;;;;;;;;;;15.50;74.00;;;;;;4255989;27;19923;-70
2021/11/04 07:18:56;;;;;;;;;;;15.40;73.90;;;;;;4247958;27;19930;-70
2021/11/04 07:21:17;;;;;;;;;;;15.50;74.10;;;;;;4260360;27;19919;-70
2021/11/04 07:23:26;;;;;;;;;;;15.50;74.10;;;;;;4247858;27;19984;-70
2021/11/04 07:25:29;;;;;;;;;;;15.40;74.00;;;;;;4253341;27;20340;-71
2021/11/04 07:27:36;;;;;;;;;;;15.50;74.00;;;;;;4259906;27;19964;-70
2021/11/04 07:29:40;;;;;;;;;;;15.40;73.90;;;;;;4264319;27;19919;-71
2021/11/04 07:31:42;;;;;;;;;;;15.50;74.00;;;;;;4254305;27;19964;-71
2021/11/04 07:33:45;;;;;;;;;;;15.40;74.70;;;;;;4246210;27;19920;-70
2021/11/04 07:35:48;;;;;;;;;;;15.50;74.10;;;;;;4257077;27;19928;-70
2021/11/04 07:37:51;;;;;;;;;;;15.40;74.10;;;;;;4260497;27;19926;-70
2021/11/04 07:39:56;;;;;;;;;;;15.40;74.20;;;;;;4263371;27;20252;-70
2021/11/04 07:41:59;;;;;;;;;;;15.40;74.20;;;;;;4252803;27;19964;-71
2021/11/04 07:44:03;;;;;;;;;;;15.40;74.20;;;;;;4264903;27;19923;-70
2021/11/04 07:46:07;;;;;;;;;;;15.40;74.10;;;;;;4257981;27;19927;-70
2021/11/04 07:48:10;;;;;;;;;;;15.40;74.20;;;;;;4258776;27;19972;-70
2021/11/04 07:50:15;;;;;;;;;;;15.40;74.20;;;;;;4263257;27;20295;-70
2021/11/04 07:52:18;;;;;;;;;;;15.40;74.30;;;;;;4240167;27;20399;-71
2021/11/04 07:54:20;;;;;;;;;;;15.40;74.30;;;;;;4247197;27;19919;-71
2021/11/04 07:56:25;;;;;;;;;;;15.40;74.30;;;;;;4252386;27;19919;-69
2021/11/04 07:58:27;;;;;;;;;;;15.40;74.20;;;;;;4253586;27;19919;-70
2021/11/04 08:00:30;;;;;;;;;;;15.40;74.30;;;;;;4247971;27;19919;-71
2021/11/04 08:02:33;;;;;;;;;;;15.40;74.40;;;;;;4258400;27;20477;-70
2021/11/04 08:04:36;;;;;;;;;;;15.40;74.50;;;;;;4246999;27;19972;-71
2021/11/04 08:06:38;;;;;;;;;;;15.40;74.40;;;;;;4252067;27;20344;-70
2021/11/04 08:08:41;;;;;;;;;;;15.40;74.50;;;;;;4254354;27;20390;-71
2021/11/04 08:10:44;;;;;;;;;;;15.40;74.60;;;;;;4247875;27;20489;-71
2021/11/04 08:12:48;;;;;;;;;;;15.40;74.50;;;;;;4252530;27;19919;-70
2021/11/04 08:14:51;;;;;;;;;;;15.40;74.60;;;;;;4264581;27;19991;-70
2021/11/04 08:16:53;;;;;;;;;;;15.40;74.50;;;;;;4259735;27;19919;-70
2021/11/04 08:18:56;;;;;;;;;;;15.40;74.60;;;;;;4236926;27;19920;-69
2021/11/04 08:20:59;;;;;;;;;;;15.40;74.60;;;;;;4246847;27;19972;-70
2021/11/04 08:23:02;;;;;;;;;;;15.40;74.60;;;;;;4259240;27;19923;-71
2021/11/04 08:25:06;;;;;;;;;;;15.40;74.60;;;;;;4246839;27;19919;-70
2021/11/04 08:27:09;;;;;;;;;;;15.40;74.50;;;;;;4250762;27;19926;-71
2021/11/04 08:29:13;;;;;;;;;;;15.40;74.60;;;;;;4255031;27;19926;-70
2021/11/04 08:31:16;;;;;;;;;;;15.40;74.70;;;;;;4264137;27;19919;-71
2021/11/04 08:33:18;;;;;;;;;;;15.40;74.70;;;;;;4255549;27;20459;-69
2021/11/04 08:35:21;;;;;;;;;;;15.40;74.60;;;;;;4263157;27;19927;-70
2021/11/04 08:37:24;;;;;;;;;;;15.40;74.80;;;;;;4257300;27;19927;-70
2021/11/04 08:39:27;;;;;;;;;;;15.40;74.70;;;;;;4238205;27;19951;-70
2021/11/04 08:41:30;;;;;;;;;;;15.40;74.80;;;;;;4246751;27;19919;-72
2021/11/04 08:43:33;;;;;;;;;;;15.40;74.80;;;;;;4257807;27;20441;-70
2021/11/04 08:45:37;;;;;;;;;;;15.40;74.90;;;;;;4247810;27;19920;-70
2021/11/04 08:47:40;;;;;;;;;;;15.40;74.80;;;;;;4248495;27;19972;-70
2021/11/04 08:49:42;;;;;;;;;;;15.50;74.90;;;;;;4256727;27;19972;-71
2021/11/04 08:51:45;;;;;;;;;;;15.40;74.80;;;;;;4246746;27;19919;-70
2021/11/04 08:53:48;;;;;;;;;;;15.40;74.80;;;;;;4257577;27;19975;-71
2021/11/04 08:56:11;;;;;;;;;;;15.40;74.80;;;;;;4247236;27;19919;-70
2021/11/04 08:58:13;;;;;;;;;;;15.50;74.90;;;;;;4250563;27;20332;-70
2021/11/04 09:00:16;;;;;;;;;;;15.50;75.00;;;;;;4255105;27;20395;-70
2021/11/04 09:02:21;;;;;;;;;;;15.40;75.00;;;;;;4263355;27;20336;-70
2021/11/04 09:04:24;;;;;;;;;;;15.40;75.50;;;;;;4250623;27;19954;-70
2021/11/04 09:06:27;;;;;;;;;;;15.40;75.00;;;;;;4246656;27;19919;-70
2021/11/04 09:08:30;;;;;;;;;;;15.50;75.10;;;;;;4253359;27;19923;-70
2021/11/04 09:10:38;;;;;;;;;;;15.50;75.40;;;;;;4262490;27;19968;-71
2021/11/04 09:12:42;;;;;;;;;;;15.50;75.40;;;;;;4262468;27;19972;-68
2021/11/04 09:14:45;;;;;;;;;;;15.50;75.70;;;;;;4257961;27;19919;-68
2021/11/04 09:16:47;;;;;;;;;;;15.50;75.80;;;;;;4246293;28;19984;-70
2021/11/04 09:18:52;;;;;;;;;;;15.50;76.50;;;;;;4248946;27;19972;-70
2021/11/04 09:20:54;;;;;;;;;;;15.50;76.70;;;;;;4257021;27;19923;-70
2021/11/04 09:22:57;;;;;;;;;;;15.60;77.20;;;;;;4248187;28;20482;-73
2021/11/04 09:24:59;;;;;;;;;;;15.60;77.70;;;;;;4257758;27;19923;-69
2021/11/04 09:27:03;;;;;;;;;;;15.60;78.40;;;;;;4262047;27;19923;-69
2021/11/04 09:29:06;;;;;;;;;;;15.60;78.70;;;;;;4260121;27;19919;-69
2021/11/04 09:31:09;;;;;;;;;;;15.70;78.90;;;;;;4256940;27;19951;-69
2021/11/04 09:33:14;;;;;;;;;;;15.70;78.90;;;;;;4251357;27;20419;-69
2021/11/04 09:35:18;;;;;;;;;;;15.60;78.70;;;;;;4263620;27;19926;-70
2021/11/04 09:37:21;;;;;;;;;;;15.70;78.70;;;;;;4259183;27;19919;-70
2021/11/04 09:39:24;;;;;;;;;;;15.70;78.60;;;;;;4259225;27;19920;-71
2021/11/04 09:41:27;;;;;;;;;;;15.70;78.30;;;;;;4256008;27;19965;-67
2021/11/04 09:43:31;;;;;;;;;;;15.70;78.30;;;;;;4227926;28;20342;-67
2021/11/04 09:45:33;;;;;;;;;;;15.70;78.20;;;;;;4256630;27;19919;-69
2021/11/04 09:47:36;;;;;;;;;;;15.70;77.80;;;;;;4247432;27;20395;-69
2021/11/04 09:49:39;;;;;;;;;;;15.80;78.10;;;;;;4254474;27;19923;-70
2021/11/04 09:51:43;;;;;;;;;;;15.80;78.20;;;;;;4255832;27;19971;-67
2021/11/04 09:53:48;;;;;;;;;;;15.80;77.80;;;;;;4254369;27;19923;-71
2021/11/04 09:55:51;;;;;;;;;;;15.80;77.70;;;;;;4252449;27;19988;-69
2021/11/04 09:57:55;;;;;;;;;;;15.80;77.60;;;;;;4255318;27;19923;-70
2021/11/04 09:59:58;;;;;;;;;;;15.80;77.40;;;;;;4257012;27;19920;-70
2021/11/04 10:02:00;;;;;;;;;;;15.80;77.20;;;;;;4251317;27;20288;-70
2021/11/04 10:04:03;;;;;;;;;;;15.80;77.10;;;;;;4262599;27;19930;-68
2021/11/04 10:06:06;;;;;;;;;;;15.90;77.20;;;;;;4252898;27;19926;-72
2021/11/04 10:08:13;;;;;;;;;;;15.80;77.00;;;;;;4259490;27;20452;-69
2021/11/04 10:10:17;;;;;;;;;;;15.80;77.10;;;;;;4261260;27;20308;-66
2021/11/04 10:12:20;;;;;;;;;;;15.80;77.00;;;;;;4251110;27;20599;-67
2021/11/04 10:14:22;;;;;;;;;;;15.80;77.00;;;;;;4262731;27;19918;-69
2021/11/04 10:16:27;;;;;;;;;;;15.90;77.00;;;;;;4253254;27;19919;-66
2021/11/04 10:18:38;;;;;;;;;;;15.90;77.10;;;;;;4260766;27;19926;-69
2021/11/04 10:20:42;;;;;;;;;;;15.90;76.90;;;;;;4264974;27;19923;-72
2021/11/04 10:22:57;;;;;;;;;;;15.90;76.90;;;;;;4257238;27;20327;-71
2021/11/04 10:25:01;;;;;;;;;;;15.90;76.90;;;;;;4269975;27;19919;-72
2021/11/04 10:27:04;;;;;;;;;;;16.10;77.00;;;;;;4255400;27;19919;-71
2021/11/04 10:29:07;;;;;;;;;;;16.10;76.70;;;;;;4235137;27;20319;-70
2021/11/04 10:31:11;;;;;;;;;;;16.20;76.60;;;;;;4251163;27;20321;-70
2021/11/04 10:33:21;;;;;;;;;;;16.40;76.50;;;;;;4259079;27;20359;-71
2021/11/04 10:35:30;;;;;;;;;;;16.50;76.10;;;;;;4265146;27;20526;-71
2021/11/04 10:37:45;;;;;;;;;;;16.60;75.80;;;;;;4259666;27;19919;-70
2021/11/04 10:39:49;;;;;;;;;;;16.70;75.50;;;;;;4247676;27;19923;-67
2021/11/04 10:41:54;;;;;;;;;;;16.80;75.30;;;;;;4253895;27;19922;-69
2021/11/04 10:43:58;;;;;;;;;;;16.90;75.10;;;;;;4254410;27;20333;-71
2021/11/04 10:46:01;;;;;;;;;;;16.90;74.80;;;;;;4264136;27;19923;-71
2021/11/04 10:48:19;;;;;;;;;;;17.00;74.40;;;;;;4253431;27;19972;-71
2021/11/04 10:50:36;;;;;;;;;;;17.10;74.10;;;;;;4254464;27;20661;-71
2021/11/04 10:52:39;;;;;;;;;;;17.20;73.80;;;;;;4257297;27;20363;-73
2021/11/04 10:54:43;;;;;;;;;;;17.40;73.50;;;;;;4251062;27;19923;-71
2021/11/04 10:56:50;;;;;;;;;;;17.50;73.30;;;;;;4231031;27;20003;-71
2021/11/04 10:58:55;;;;;;;;;;;17.60;73.10;;;;;;4258486;27;19976;-68
2021/11/04 11:00:58;;;;;;;;;;;17.70;72.80;;;;;;4247788;27;19919;-70
2021/11/04 11:03:10;;;;;;;;;;;17.90;72.90;;;;;;4253708;27;19927;-71
2021/11/04 11:05:24;;;;;;;;;;;18.00;72.30;;;;;;4263395;27;19943;-68
2021/11/04 11:07:28;;;;;;;;;;;18.10;71.80;;;;;;4261141;27;20332;-70
2021/11/04 11:09:31;;;;;;;;;;;18.20;71.40;;;;;;4255715;27;19923;-71
2021/11/04 11:11:34;;;;;;;;;;;18.30;71.20;;;;;;4265012;27;19945;-68
2021/11/04 11:13:37;;;;;;;;;;;18.40;71.10;;;;;;4252665;27;19945;-73
2021/11/04 11:15:42;;;;;;;;;;;18.50;71.20;;;;;;4264039;27;19970;-70
2021/11/04 11:17:45;;;;;;;;;;;18.60;71.10;;;;;;4261360;27;19976;-70
2021/11/04 11:19:48;;;;;;;;;;;18.70;71.00;;;;;;4254630;27;19919;-67
2021/11/04 11:21:51;;;;;;;;;;;18.80;71.10;;;;;;4258223;27;19926;-72
2021/11/04 11:23:54;;;;;;;;;;;18.90;70.80;;;;;;4257455;27;19929;-72
2021/11/04 11:25:59;;;;;;;;;;;18.90;71.10;;;;;;4230528;27;19986;-72
2021/11/04 11:28:02;;;;;;;;;;;19.00;70.50;;;;;;4249946;27;19926;-71
2021/11/04 11:30:08;;;;;;;;;;;19.10;70.60;;;;;;4238037;27;19919;-74
2021/11/04 11:32:20;;;;;;;;;;;19.20;70.20;;;;;;4260588;27;19930;-73
2021/11/04 11:34:25;;;;;;;;;;;19.30;70.00;;;;;;4251233;27;19919;-67
2021/11/04 11:36:28;;;;;;;;;;;19.40;69.40;;;;;;4247676;27;19926;-73
2021/11/04 11:38:31;;;;;;;;;;;19.50;69.50;;;;;;4250824;27;19931;-70
2021/11/04 11:40:34;;;;;;;;;;;19.60;69.20;;;;;;4259767;27;19926;-77
2021/11/04 11:42:52;;;;;;;;;;;19.70;69.10;;;;;;4264634;27;20419;-72
2021/11/04 11:44:56;;;;;;;;;;;19.80;67.60;;;;;;4252207;27;19923;-73
2021/11/04 11:47:00;;;;;;;;;;;19.80;67.10;;;;;;4243247;27;19924;-74
2021/11/04 11:49:17;;;;;;;;;;;19.90;67.00;;;;;;4252016;27;19931;-71
2021/11/04 11:51:35;;;;;;;;;;;20.00;68.00;;;;;;4250840;27;19926;-71
2021/11/04 11:53:48;;;;;;;;;;;20.20;67.70;;;;;;4247172;27;19926;-74
2021/11/04 11:55:52;;;;;;;;;;;20.30;66.80;;;;;;4253314;27;19919;-74
2021/11/04 11:58:13;;;;;;;;;;;20.40;66.80;;;;;;4266045;27;20250;-74
2021/11/04 12:00:16;;;;;;;;;;;20.40;66.00;;;;;;4251917;27;19932;-75